createdAt,value
2019-05-18T00:00:35.630Z,99.90
2019-05-18T00:03:24.484Z,99.90
2019-05-18T00:05:49.904Z,99.90
2019-05-18T00:08:51.695Z,99.90
2019-05-18T00:11:20.796Z,99.90
2019-05-18T00:13:53.957Z,99.90
2019-05-18T00:16:36.008Z,99.90
2019-05-18T00:19:39.263Z,99.90
2019-05-18T00:22:44.725Z,99.90
2019-05-18T00:25:35.528Z,99.90
2019-05-18T00:28:00.503Z,99.90
2019-05-18T00:30:32.968Z,99.90
2019-05-18T00:36:16.281Z,99.90
2019-05-18T00:39:28.275Z,99.90
2019-05-18T00:42:02.741Z,99.90
2019-05-18T00:45:08.062Z,99.90
2019-05-18T00:48:05.761Z,99.90
2019-05-18T00:50:45.471Z,99.90
2019-05-18T00:53:50.816Z,99.90
2019-05-18T00:57:03.857Z,99.90
2019-05-18T01:00:09.053Z,99.90
2019-05-18T01:03:13.265Z,99.90
2019-05-18T01:06:06.124Z,99.90
2019-05-18T01:09:06.848Z,99.90
2019-05-18T01:12:16.044Z,99.90
2019-05-18T01:15:02.523Z,99.90
2019-05-18T01:20:27.920Z,99.90
2019-05-18T01:34:42.942Z,99.90
2019-05-18T01:37:25.527Z,99.90
2019-05-18T01:43:58.892Z,99.90
2019-05-18T01:49:55.252Z,99.90
2019-05-18T01:52:38.574Z,99.90
2019-05-18T01:58:50.532Z,99.90
2019-05-18T02:01:43.566Z,99.90
2019-05-18T02:04:28.356Z,99.90
2019-05-18T02:06:55.508Z,99.90
2019-05-18T02:09:24.824Z,99.90
2019-05-18T02:12:27.898Z,99.90
2019-05-18T02:15:22.668Z,99.90
2019-05-18T02:18:49.331Z,99.90
2019-05-18T02:21:35.642Z,99.90
2019-05-18T02:27:23.984Z,99.90
2019-05-18T02:29:52.960Z,99.90
2019-05-18T02:32:47.786Z,99.90
2019-05-18T02:35:20.227Z,99.90
2019-05-18T02:38:00.197Z,99.90
2019-05-18T02:43:17.774Z,99.90
2019-05-18T02:48:49.478Z,99.90
2019-05-18T03:23:18.344Z,99.90
2019-05-18T03:25:47.290Z,99.90
2019-05-18T03:28:22.765Z,99.90
2019-05-18T03:30:54.568Z,99.90
2019-05-18T03:33:29.601Z,99.90
2019-05-18T03:36:05.553Z,99.90
2019-05-18T03:38:42.330Z,99.90
2019-05-18T03:41:19.449Z,99.90
2019-05-18T03:43:56.386Z,99.90
2019-05-18T03:46:34.709Z,99.90
2019-05-18T03:49:32.716Z,99.90
2019-05-18T03:52:07.839Z,99.90
2019-05-18T03:54:52.853Z,99.90
2019-05-18T03:57:27.693Z,99.90
2019-05-18T04:00:15.055Z,99.90
2019-05-18T04:03:09.633Z,99.90
2019-05-18T04:11:45.052Z,99.90
2019-05-18T04:14:30.324Z,99.90
2019-05-18T04:17:10.666Z,99.90
2019-05-18T04:20:12.728Z,99.90
2019-05-18T04:22:41.193Z,99.90
2019-05-18T04:25:21.548Z,99.90
2019-05-18T04:28:04.938Z,99.90
2019-05-18T04:30:40.569Z,99.90
2019-05-18T04:33:24.659Z,99.90
2019-05-18T04:36:22.395Z,99.90
2019-05-18T04:42:04.867Z,99.90
2019-05-18T04:44:24.093Z,99.90
2019-05-18T04:47:07.183Z,99.90
2019-05-18T04:49:41.678Z,99.90
2019-05-18T04:52:12.171Z,99.90
2019-05-18T04:54:41.331Z,99.90
2019-05-18T04:57:40.950Z,99.90
2019-05-18T05:00:23.098Z,99.90
2019-05-18T05:03:15.896Z,99.90
2019-05-18T05:05:49.916Z,99.90
2019-05-18T05:08:04.250Z,99.90
2019-05-18T05:10:41.201Z,99.90
2019-05-18T05:13:30.939Z,99.90
2019-05-18T05:16:07.265Z,99.90
2019-05-18T05:18:41.584Z,99.90
2019-05-18T05:21:30.601Z,99.90
2019-05-18T05:24:31.095Z,99.90
2019-05-18T05:27:14.397Z,99.90
2019-05-18T05:29:48.931Z,99.90
2019-05-18T05:32:39.849Z,99.90
2019-05-18T05:35:08.362Z,99.90
2019-05-18T05:37:38.449Z,99.90
2019-05-18T05:40:09.166Z,99.90
2019-05-18T05:45:39.981Z,99.90
2019-05-18T05:48:10.005Z,99.90
2019-05-18T05:50:38.790Z,99.90
2019-05-18T05:53:07.574Z,99.90
2019-05-18T05:55:43.337Z,99.90
2019-05-18T05:58:14.000Z,99.90
2019-05-18T06:00:45.121Z,99.90
2019-05-18T06:03:13.579Z,99.90
2019-05-18T06:05:42.900Z,99.90
2019-05-18T06:08:13.207Z,99.90
2019-05-18T06:10:48.468Z,99.90
2019-05-18T06:13:21.673Z,99.90
2019-05-18T06:15:54.497Z,99.90
2019-05-18T06:18:45.550Z,99.90
2019-05-18T06:27:43.767Z,99.90
2019-05-18T06:30:19.955Z,99.90
2019-05-18T06:32:49.983Z,99.90
2019-05-18T06:38:32.082Z,99.90
2019-05-18T06:44:21.273Z,99.90
2019-05-18T06:46:50.006Z,99.90
2019-05-18T06:49:46.383Z,99.90
2019-05-18T06:52:39.418Z,99.90
2019-05-18T06:55:13.126Z,99.90
2019-05-18T06:57:46.832Z,99.90
2019-05-18T07:06:44.981Z,99.90
2019-05-18T07:09:14.522Z,99.90
2019-05-18T07:12:19.998Z,99.90
2019-05-18T07:14:53.918Z,99.90
2019-05-18T07:17:23.975Z,99.90
2019-05-18T07:19:53.064Z,99.90
2019-05-18T07:26:03.441Z,99.90
2019-05-18T07:28:43.773Z,99.90
2019-05-18T07:35:00.009Z,99.90
2019-05-18T07:37:29.051Z,99.90
2019-05-18T07:40:00.322Z,99.90
2019-05-18T07:42:44.824Z,99.90
2019-05-18T07:45:16.144Z,99.90
2019-05-18T07:47:58.265Z,99.90
2019-05-18T07:50:32.899Z,99.90
2019-05-18T07:53:01.306Z,99.90
2019-05-18T07:55:33.914Z,99.90
2019-05-18T07:58:03.386Z,99.90
2019-05-18T08:12:14.577Z,99.90
2019-05-18T08:14:47.205Z,99.90
2019-05-18T08:17:18.246Z,99.90
2019-05-18T08:19:46.756Z,99.90
2019-05-18T08:22:15.304Z,99.90
2019-05-18T08:24:50.547Z,99.90
2019-05-18T08:27:23.173Z,99.90
2019-05-18T08:33:41.170Z,99.90
2019-05-18T08:36:15.855Z,99.90
2019-05-18T08:38:44.045Z,99.90
2019-05-18T08:41:12.583Z,99.90
2019-05-18T08:43:41.109Z,99.90
2019-05-18T08:48:53.051Z,99.90
2019-05-18T08:51:25.818Z,99.90
2019-05-18T08:53:55.169Z,99.90
2019-05-18T08:56:26.575Z,99.90
2019-05-18T08:58:57.225Z,99.90
2019-05-18T09:01:28.112Z,99.90
2019-05-18T09:03:56.499Z,99.90
2019-05-18T09:06:27.961Z,99.90
2019-05-18T09:08:55.630Z,99.90
2019-05-18T09:11:25.201Z,99.90
2019-05-18T09:13:54.470Z,99.90
2019-05-18T09:16:28.419Z,99.90
2019-05-18T09:19:00.621Z,99.90
2019-05-18T09:21:40.946Z,99.90
2019-05-18T09:24:10.662Z,99.80
2019-05-18T09:26:42.548Z,99.90
2019-05-18T09:29:11.017Z,99.90
2019-05-18T09:31:39.270Z,99.90
2019-05-18T09:34:12.485Z,99.20
2019-05-18T09:36:41.480Z,98.70
2019-05-18T09:42:03.645Z,99.00
2019-05-18T09:44:32.853Z,98.80
2019-05-18T09:47:01.474Z,99.50
2019-05-18T09:49:49.028Z,98.80
2019-05-18T09:52:18.413Z,98.50
2019-05-18T09:54:49.152Z,96.30
2019-05-18T09:57:22.271Z,95.00
2019-05-18T10:03:11.580Z,96.20
2019-05-18T10:05:47.344Z,95.60
2019-05-18T10:08:17.098Z,95.20
2019-05-18T10:11:05.646Z,95.30
2019-05-18T10:13:45.542Z,95.30
2019-05-18T10:16:16.027Z,96.60
2019-05-18T10:18:44.624Z,97.30
2019-05-18T10:21:15.366Z,96.30
2019-05-18T10:24:11.870Z,96.20
2019-05-18T10:30:01.617Z,94.90
2019-05-18T10:32:47.966Z,92.70
2019-05-18T10:35:21.772Z,93.50
2019-05-18T10:38:20.776Z,93.40
2019-05-18T10:43:26.081Z,94.60
2019-05-18T10:46:19.272Z,92.80
2019-05-18T10:49:07.404Z,93.30
2019-05-18T10:55:10.267Z,94.20
2019-05-18T10:57:48.756Z,95.40
2019-05-18T11:00:20.862Z,95.90
2019-05-18T11:03:05.873Z,96.50
2019-05-18T11:05:36.856Z,96.10
2019-05-18T11:08:09.643Z,96.60
2019-05-18T11:13:47.419Z,95.90
2019-05-18T11:16:21.402Z,95.20
2019-05-18T11:18:49.096Z,95.70
2019-05-18T11:21:18.118Z,96.60
2019-05-18T11:23:55.774Z,97.50
2019-05-18T11:26:56.405Z,97.60
2019-05-18T11:29:36.196Z,97.70
2019-05-18T11:32:06.845Z,97.00
2019-05-18T11:34:50.258Z,96.90
2019-05-18T11:37:25.074Z,95.10
2019-05-18T11:43:07.188Z,93.50
2019-05-18T11:46:04.232Z,92.40
2019-05-18T12:16:26.380Z,92.80
2019-05-18T12:18:53.355Z,93.80
2019-05-18T12:25:17.976Z,94.80
2019-05-18T12:28:05.290Z,94.20
2019-05-18T12:30:46.204Z,93.90
2019-05-18T12:33:44.326Z,93.70
2019-05-18T12:36:47.855Z,95.20
2019-05-18T12:39:24.047Z,95.40
2019-05-18T12:41:52.835Z,94.50
2019-05-18T12:44:30.558Z,94.30
2019-05-18T12:46:59.378Z,94.10
2019-05-18T12:49:31.910Z,93.00
2019-05-18T12:52:20.494Z,92.80
2019-05-18T12:55:20.987Z,93.10
2019-05-18T12:58:11.424Z,93.20
2019-05-18T13:00:39.053Z,92.40
2019-05-18T13:03:14.412Z,93.20
2019-05-18T14:54:58.139Z,73.60
2019-05-18T14:57:31.236Z,73.40
2019-05-18T15:00:09.612Z,75.50
2019-05-18T15:05:40.462Z,77.20
2019-05-18T15:08:53.849Z,72.80
2019-05-18T15:11:27.677Z,70.60
2019-05-18T15:17:03.896Z,71.00
2019-05-18T15:20:01.574Z,71.90
2019-05-18T15:23:08.116Z,73.20
2019-05-18T15:25:51.937Z,73.40
2019-05-18T15:28:21.391Z,73.20
2019-05-18T15:30:58.566Z,72.00
2019-05-18T15:33:52.379Z,73.90
2019-05-18T15:36:27.320Z,74.20
2019-05-18T15:39:37.537Z,73.50
2019-05-18T15:42:25.091Z,73.20
2019-05-18T15:45:06.196Z,76.70
2019-05-18T15:47:34.763Z,77.10
2019-05-18T15:50:04.726Z,77.00
2019-05-18T15:52:33.928Z,76.30
2019-05-18T15:55:06.463Z,78.60
2019-05-18T15:57:34.889Z,79.70
2019-05-18T16:00:06.517Z,79.50
2019-05-18T16:02:37.934Z,79.20
2019-05-18T16:05:07.275Z,78.70
2019-05-18T16:07:36.305Z,77.70
2019-05-18T16:10:06.793Z,77.10
2019-05-18T16:12:34.993Z,79.90
2019-05-18T16:15:03.471Z,78.20
2019-05-18T16:17:39.446Z,78.00
2019-05-18T16:20:03.784Z,77.80
2019-05-18T16:22:32.104Z,78.30
2019-05-18T16:31:33.781Z,74.80
2019-05-18T16:34:02.595Z,74.90
2019-05-18T16:36:33.623Z,75.30
2019-05-18T16:39:08.538Z,75.40
2019-05-18T16:41:38.315Z,75.80
2019-05-18T16:44:07.105Z,76.70
2019-05-18T16:46:35.315Z,75.10
2019-05-18T16:49:03.930Z,77.10
2019-05-18T16:51:33.720Z,77.00
2019-05-18T16:54:02.816Z,79.30
2019-05-18T16:56:35.294Z,78.50
2019-05-18T16:59:03.709Z,78.90
2019-05-18T17:01:31.835Z,75.30
2019-05-18T17:03:59.808Z,77.10
2019-05-18T17:09:44.745Z,78.20
2019-05-18T17:12:12.696Z,75.90
2019-05-18T17:14:41.378Z,75.50
2019-05-18T17:17:09.150Z,76.90
2019-05-18T17:19:37.543Z,78.40
2019-05-18T17:22:05.540Z,74.60
2019-05-18T17:24:33.561Z,76.40
2019-05-18T17:27:01.772Z,77.60
2019-05-18T17:29:31.101Z,76.50
2019-05-18T17:31:59.892Z,78.40
2019-05-18T17:34:28.395Z,79.30
2019-05-18T17:36:57.394Z,77.70
2019-05-18T17:39:27.782Z,77.90
2019-05-18T17:41:56.315Z,78.20
2019-05-18T17:44:24.761Z,78.70
2019-05-18T17:46:53.369Z,78.10
2019-05-18T17:49:26.688Z,79.20
2019-05-18T17:51:51.593Z,81.90
2019-05-18T17:54:22.632Z,81.60
2019-05-18T17:57:07.455Z,81.60
2019-05-18T17:59:23.699Z,80.90
2019-05-18T18:05:09.344Z,90.60
2019-05-18T18:07:39.520Z,92.80
2019-05-18T18:10:09.446Z,93.40
2019-05-18T18:12:37.442Z,94.40
2019-05-18T18:15:17.142Z,95.40
2019-05-18T18:24:01.510Z,97.00
2019-05-18T18:26:30.441Z,97.60
2019-05-18T18:32:46.817Z,99.00
2019-05-18T20:43:28.963Z,99.90
2019-05-18T20:46:04.410Z,99.90
2019-05-18T20:49:09.681Z,99.90
2019-05-18T20:51:42.601Z,99.90
2019-05-18T20:54:43.238Z,99.90
2019-05-18T20:57:03.219Z,99.90
2019-05-18T20:59:31.812Z,99.90
2019-05-18T21:02:01.711Z,99.90
2019-05-18T21:05:06.716Z,99.90
2019-05-18T21:08:02.199Z,99.90
2019-05-18T21:13:21.076Z,99.90
2019-05-18T21:15:50.180Z,99.90
2019-05-18T21:18:20.875Z,99.90
2019-05-18T21:21:08.892Z,99.90
2019-05-18T21:24:01.669Z,99.90
2019-05-18T21:26:54.205Z,99.90
2019-05-18T21:29:20.578Z,99.90
2019-05-18T21:31:51.658Z,99.90
2019-05-18T21:34:35.740Z,99.90
2019-05-18T21:37:16.681Z,99.90
2019-05-18T21:42:33.215Z,99.90
2019-05-18T21:45:02.519Z,99.90
2019-05-18T21:47:46.588Z,99.90
2019-05-18T21:50:10.958Z,99.90
2019-05-18T21:52:50.976Z,99.90
2019-05-18T21:55:27.404Z,99.90
2019-05-18T22:13:58.001Z,99.90
2019-05-18T22:16:27.066Z,99.90
2019-05-18T22:18:55.870Z,99.90
2019-05-18T22:21:29.755Z,99.90
2019-05-18T22:23:59.342Z,99.90
2019-05-18T22:26:28.524Z,99.90
2019-05-18T22:28:57.411Z,99.90
2019-05-18T22:31:25.542Z,99.90
2019-05-18T22:33:54.980Z,99.90
2019-05-18T22:36:24.175Z,99.90
2019-05-18T22:38:52.981Z,99.90
2019-05-18T22:41:22.248Z,99.90
2019-05-18T22:43:52.754Z,99.90
2019-05-18T22:46:24.914Z,99.90
2019-05-18T22:48:53.922Z,99.90
2019-05-18T22:51:24.197Z,99.90
2019-05-18T22:53:53.077Z,99.90
2019-05-18T22:56:21.700Z,99.90
2019-05-18T22:58:50.000Z,99.90
2019-05-18T23:01:18.844Z,99.90
2019-05-18T23:03:51.435Z,99.90
2019-05-18T23:06:20.348Z,99.90
2019-05-18T23:08:49.013Z,99.90
2019-05-18T23:11:17.615Z,99.90
2019-05-18T23:13:46.314Z,99.90
2019-05-18T23:16:15.374Z,99.90
2019-05-18T23:18:55.819Z,99.90
2019-05-18T23:21:30.617Z,99.90
2019-05-18T23:23:55.018Z,99.90
2019-05-18T23:26:23.634Z,99.90
2019-05-18T23:28:58.693Z,99.90
2019-05-18T23:31:55.618Z,99.90
2019-05-18T23:34:27.204Z,99.90
2019-05-18T23:37:18.767Z,99.90
2019-05-18T23:39:53.325Z,99.90
2019-05-18T23:42:22.513Z,99.90
2019-05-18T23:44:51.296Z,99.90
2019-05-18T23:47:20.197Z,99.90
2019-05-18T23:49:48.783Z,99.90
2019-05-18T23:52:51.555Z,99.90
2019-05-18T23:55:20.595Z,99.90
2019-05-18T23:57:48.964Z,99.90
